createdAt,value
2019-05-13T00:00:25.537Z,53.60
2019-05-13T00:02:55.273Z,53.60
2019-05-13T00:05:25.131Z,53.80
2019-05-13T00:07:54.737Z,53.80
2019-05-13T00:10:24.587Z,53.80
2019-05-13T00:12:54.252Z,54.00
2019-05-13T00:15:24.379Z,54.00
2019-05-13T00:17:54.471Z,54.00
2019-05-13T00:20:24.235Z,54.10
2019-05-13T00:23:23.523Z,54.30
2019-05-13T00:31:35.957Z,54.30
2019-05-13T00:34:05.770Z,54.20
2019-05-13T00:36:36.738Z,54.20
2019-05-13T00:39:08.818Z,54.30
2019-05-13T00:41:38.439Z,54.40
2019-05-13T00:44:08.114Z,54.40
2019-05-13T00:46:37.778Z,54.40
2019-05-13T00:49:07.849Z,54.60
2019-05-13T00:51:37.529Z,54.60
2019-05-13T00:54:07.119Z,54.60
2019-05-13T00:56:36.729Z,54.60
2019-05-13T00:59:06.418Z,54.70
2019-05-13T01:01:36.121Z,54.70
2019-05-13T01:04:05.785Z,54.20
2019-05-13T01:06:37.499Z,54.80
2019-05-13T01:09:08.223Z,54.80
2019-05-13T01:11:37.836Z,54.90
2019-05-13T01:14:07.445Z,54.90
2019-05-13T01:16:37.351Z,55.00
2019-05-13T01:19:07.213Z,55.90
2019-05-13T01:21:36.814Z,55.10
2019-05-13T01:24:06.506Z,55.20
2019-05-13T01:26:36.351Z,55.20
2019-05-13T01:29:06.191Z,55.40
2019-05-13T01:31:36.806Z,55.50
2019-05-13T01:34:06.651Z,55.50
2019-05-13T01:36:36.998Z,55.50
2019-05-13T01:39:07.428Z,55.70
2019-05-13T01:41:38.571Z,55.80
2019-05-13T01:44:08.256Z,55.80
2019-05-13T01:46:37.844Z,55.90
2019-05-13T01:49:07.452Z,55.90
2019-05-13T01:51:37.294Z,56.10
2019-05-13T01:54:06.916Z,56.10
2019-05-13T01:56:36.507Z,56.20
2019-05-13T01:59:06.119Z,56.30
2019-05-13T02:01:36.017Z,56.50
2019-05-13T02:04:06.291Z,56.70
2019-05-13T02:06:35.874Z,56.70
2019-05-13T02:09:07.668Z,56.80
2019-05-13T02:11:37.252Z,56.90
2019-05-13T02:14:06.853Z,56.90
2019-05-13T02:16:36.448Z,57.10
2019-05-13T02:19:07.260Z,57.20
2019-05-13T02:21:36.939Z,57.20
2019-05-13T02:24:07.103Z,57.20
2019-05-13T02:26:36.701Z,57.30
2019-05-13T02:29:06.313Z,57.40
2019-05-13T02:31:46.048Z,57.50
2019-05-13T02:34:07.321Z,57.50
2019-05-13T02:36:36.990Z,57.70
2019-05-13T02:39:08.304Z,57.80
2019-05-13T02:41:38.046Z,57.80
2019-05-13T02:44:07.642Z,57.70
2019-05-13T02:46:37.303Z,57.80
2019-05-13T02:49:07.159Z,57.90
2019-05-13T02:51:36.766Z,57.90
2019-05-13T02:54:06.438Z,58.00
2019-05-13T02:56:36.493Z,58.00
2019-05-13T02:59:06.158Z,58.00
2019-05-13T03:01:35.772Z,58.10
2019-05-13T03:04:05.504Z,58.20
2019-05-13T03:06:35.166Z,58.20
2019-05-13T03:09:07.207Z,58.20
2019-05-13T03:11:36.795Z,58.20
2019-05-13T03:14:06.718Z,58.20
2019-05-13T03:16:42.798Z,58.30
2019-05-13T03:19:13.518Z,58.40
2019-05-13T03:21:43.221Z,58.40
2019-05-13T03:24:13.530Z,58.40
2019-05-13T03:26:43.720Z,58.50
2019-05-13T03:29:13.443Z,58.50
2019-05-13T03:31:46.540Z,58.60
2019-05-13T03:34:16.293Z,58.60
2019-05-13T03:36:46.988Z,58.70
2019-05-13T03:39:16.975Z,58.70
2019-05-13T03:41:52.799Z,58.70
2019-05-13T03:44:24.616Z,58.70
2019-05-13T03:46:58.094Z,58.80
2019-05-13T03:49:32.809Z,58.80
2019-05-13T03:52:03.253Z,58.90
2019-05-13T03:54:34.210Z,59.00
2019-05-13T03:57:04.195Z,59.10
2019-05-13T03:59:34.273Z,59.10
2019-05-13T04:02:04.498Z,59.10
2019-05-13T04:04:35.082Z,59.20
2019-05-13T04:07:04.677Z,59.20
2019-05-13T04:09:36.651Z,59.30
2019-05-13T04:12:06.518Z,59.30
2019-05-13T04:14:36.174Z,59.30
2019-05-13T04:17:07.978Z,59.30
2019-05-13T04:19:37.632Z,59.50
2019-05-13T04:22:07.961Z,59.50
2019-05-13T04:24:38.318Z,59.50
2019-05-13T04:27:07.909Z,59.50
2019-05-13T04:29:37.651Z,59.70
2019-05-13T04:32:07.281Z,59.70
2019-05-13T04:34:37.240Z,59.70
2019-05-13T04:37:06.913Z,59.70
2019-05-13T04:39:47.616Z,59.70
2019-05-13T04:42:08.168Z,59.70
2019-05-13T04:44:37.754Z,59.70
2019-05-13T04:47:07.425Z,59.80
2019-05-13T04:49:38.295Z,59.80
2019-05-13T04:52:13.077Z,59.80
2019-05-13T04:54:43.606Z,59.80
2019-05-13T04:57:12.789Z,59.90
2019-05-13T04:59:44.553Z,60.00
2019-05-13T05:02:40.099Z,60.00
2019-05-13T05:05:15.644Z,60.00
2019-05-13T05:08:07.361Z,60.00
2019-05-13T05:11:04.109Z,60.00
2019-05-13T05:14:02.763Z,60.10
2019-05-13T05:16:52.377Z,60.20
2019-05-13T05:20:03.873Z,60.30
2019-05-13T05:23:03.145Z,60.40
2019-05-13T05:25:58.477Z,60.40
2019-05-13T05:29:11.462Z,60.40
2019-05-13T05:32:21.473Z,60.50
2019-05-13T05:35:38.565Z,60.30
2019-05-13T05:38:46.431Z,60.30
2019-05-13T05:41:21.358Z,60.30
2019-05-13T05:43:56.307Z,60.30
2019-05-13T05:46:32.409Z,60.50
2019-05-13T05:49:06.715Z,60.70
2019-05-13T05:51:41.890Z,60.60
2019-05-13T05:54:14.746Z,60.60
2019-05-13T05:56:47.649Z,60.50
2019-05-13T05:59:21.748Z,60.40
2019-05-13T06:01:55.818Z,60.10
2019-05-13T06:04:27.372Z,59.80
2019-05-13T06:06:58.462Z,59.60
2019-05-13T06:09:28.499Z,59.50
2019-05-13T06:11:58.610Z,59.30
2019-05-13T06:14:28.827Z,59.00
2019-05-13T06:16:58.817Z,58.80
2019-05-13T06:19:28.927Z,58.70
2019-05-13T06:22:01.904Z,58.60
2019-05-13T06:24:31.388Z,58.40
2019-05-13T06:27:01.995Z,58.20
2019-05-13T06:29:32.045Z,58.00
2019-05-13T06:32:18.230Z,58.00
2019-05-13T06:34:34.855Z,57.80
2019-05-13T06:37:04.524Z,57.70
2019-05-13T06:39:34.271Z,57.50
2019-05-13T06:42:04.006Z,57.40
2019-05-13T06:44:33.616Z,57.40
2019-05-13T06:47:03.252Z,57.20
2019-05-13T06:49:32.851Z,57.00
2019-05-13T06:52:02.479Z,56.90
2019-05-13T06:54:33.267Z,56.70
2019-05-13T06:57:04.913Z,56.40
2019-05-13T06:59:34.380Z,56.30
2019-05-13T07:02:05.199Z,56.30
2019-05-13T07:04:34.758Z,56.10
2019-05-13T07:07:14.093Z,56.10
2019-05-13T07:09:36.655Z,56.00
2019-05-13T07:12:06.311Z,55.90
2019-05-13T07:14:36.183Z,55.70
2019-05-13T07:17:05.773Z,55.60
2019-05-13T07:19:36.303Z,55.30
2019-05-13T07:22:05.918Z,55.10
2019-05-13T07:24:35.529Z,55.00
2019-05-13T07:27:05.126Z,55.00
2019-05-13T07:29:34.833Z,54.90
2019-05-13T07:32:04.524Z,54.60
2019-05-13T07:34:34.219Z,54.70
2019-05-13T07:37:04.393Z,54.80
2019-05-13T07:39:34.231Z,54.70
2019-05-13T07:42:05.795Z,54.60
2019-05-13T07:44:35.197Z,54.30
2019-05-13T07:47:04.857Z,54.20
2019-05-13T07:49:34.544Z,54.20
2019-05-13T07:52:04.227Z,54.20
2019-05-13T07:54:33.903Z,54.00
2019-05-13T07:57:03.569Z,53.70
2019-05-13T07:59:33.173Z,53.60
2019-05-13T08:02:02.851Z,52.90
2019-05-13T08:04:33.390Z,52.50
2019-05-13T08:07:03.479Z,52.30
2019-05-13T08:09:33.073Z,51.90
2019-05-13T08:12:09.887Z,52.00
2019-05-13T08:14:34.229Z,52.00
2019-05-13T08:17:03.826Z,51.90
2019-05-13T08:19:33.994Z,51.90
2019-05-13T08:22:03.610Z,51.80
2019-05-13T08:24:33.472Z,51.80
2019-05-13T08:27:03.866Z,51.50
2019-05-13T08:29:33.957Z,51.40
2019-05-13T08:32:05.274Z,51.30
2019-05-13T08:34:35.211Z,51.10
2019-05-13T08:37:04.791Z,51.10
2019-05-13T08:39:38.422Z,51.20
2019-05-13T08:42:15.152Z,51.20
2019-05-13T08:44:37.776Z,51.10
2019-05-13T08:47:07.411Z,50.60
2019-05-13T08:49:37.447Z,50.60
2019-05-13T08:52:07.197Z,50.20
2019-05-13T08:54:36.802Z,50.30
2019-05-13T08:57:06.491Z,50.20
2019-05-13T08:59:36.101Z,50.00
2019-05-13T09:02:05.803Z,49.90
2019-05-13T09:04:35.398Z,49.90
2019-05-13T09:07:05.422Z,49.40
2019-05-13T09:09:36.385Z,49.10
2019-05-13T09:12:06.369Z,48.90
2019-05-13T09:14:35.980Z,48.90
2019-05-13T09:17:05.657Z,48.60
2019-05-13T09:19:35.266Z,48.50
2019-05-13T09:22:04.901Z,48.40
2019-05-13T09:24:37.722Z,48.20
2019-05-13T09:27:05.911Z,47.90
2019-05-13T09:29:35.507Z,47.70
2019-05-13T09:32:05.172Z,47.60
2019-05-13T09:34:34.793Z,46.70
2019-05-13T09:37:04.454Z,47.00
2019-05-13T09:39:34.057Z,47.00
2019-05-13T09:42:04.016Z,46.50
2019-05-13T09:44:33.891Z,46.10
2019-05-13T09:47:03.491Z,46.10
2019-05-13T09:49:33.406Z,46.20
2019-05-13T09:52:03.007Z,46.20
2019-05-13T09:54:33.322Z,46.10
2019-05-13T09:57:03.020Z,46.30
2019-05-13T09:59:32.651Z,46.50
2019-05-13T10:02:03.308Z,46.30
2019-05-13T10:04:33.037Z,46.00
2019-05-13T10:07:02.875Z,45.30
2019-05-13T10:09:33.093Z,43.40
2019-05-13T10:12:03.574Z,43.50
2019-05-13T10:14:33.679Z,43.00
2019-05-13T10:17:06.430Z,43.00
2019-05-13T10:19:35.069Z,42.90
2019-05-13T10:22:04.854Z,43.20
2019-05-13T10:24:35.324Z,43.40
2019-05-13T10:27:05.171Z,42.60
2019-05-13T10:29:35.281Z,43.30
2019-05-13T10:32:04.961Z,43.40
2019-05-13T10:34:35.095Z,43.10
2019-05-13T10:37:05.626Z,43.30
2019-05-13T10:39:35.280Z,43.20
2019-05-13T10:42:05.032Z,42.50
2019-05-13T10:44:34.658Z,42.30
2019-05-13T10:47:04.297Z,42.60
2019-05-13T10:49:33.978Z,42.60
2019-05-13T10:52:03.582Z,41.80
2019-05-13T10:54:33.201Z,41.60
2019-05-13T10:57:03.860Z,41.40
2019-05-13T10:59:34.026Z,41.20
2019-05-13T11:02:03.642Z,40.60
2019-05-13T11:04:33.235Z,41.10
2019-05-13T11:07:03.353Z,40.20
2019-05-13T11:09:33.049Z,39.90
2019-05-13T11:12:03.645Z,39.20
2019-05-13T11:14:33.238Z,39.00
2019-05-13T11:17:02.906Z,39.20
2019-05-13T11:19:36.633Z,39.40
2019-05-13T11:22:04.109Z,39.10
2019-05-13T11:24:34.179Z,39.10
2019-05-13T11:27:06.625Z,39.20
2019-05-13T11:29:36.106Z,39.20
2019-05-13T11:32:05.987Z,39.50
2019-05-13T11:34:35.598Z,39.60
2019-05-13T11:37:05.229Z,40.10
2019-05-13T11:39:34.819Z,40.40
2019-05-13T11:42:04.549Z,39.90
2019-05-13T11:44:34.164Z,40.10
2019-05-13T11:47:03.770Z,40.00
2019-05-13T11:49:33.369Z,39.60
2019-05-13T11:52:03.294Z,39.80
2019-05-13T11:54:32.949Z,40.20
2019-05-13T11:57:06.224Z,40.50
2019-05-13T11:59:34.052Z,40.80
2019-05-13T12:02:04.840Z,41.40
2019-05-13T12:04:35.618Z,41.90
2019-05-13T12:07:05.248Z,41.90
2019-05-13T12:09:34.922Z,42.10
2019-05-13T12:12:04.581Z,42.50
2019-05-13T12:14:48.445Z,42.90
2019-05-13T12:17:06.095Z,43.10
2019-05-13T12:19:35.745Z,43.50
2019-05-13T12:22:05.372Z,42.90
2019-05-13T12:24:35.004Z,43.10
2019-05-13T12:27:04.715Z,43.50
2019-05-13T12:29:34.300Z,43.20
2019-05-13T12:32:03.961Z,43.30
2019-05-13T12:34:40.365Z,43.30
2019-05-13T12:37:04.930Z,43.30
2019-05-13T12:39:34.794Z,43.40
2019-05-13T12:42:04.511Z,43.50
2019-05-13T12:44:34.568Z,43.80
2019-05-13T12:47:04.205Z,44.10
2019-05-13T12:49:36.560Z,44.00
2019-05-13T12:52:05.449Z,44.10
2019-05-13T12:54:35.047Z,44.20
2019-05-13T12:57:11.243Z,44.60
2019-05-13T12:59:36.084Z,44.70
2019-05-13T13:02:05.940Z,44.80
2019-05-13T13:04:35.601Z,45.00
2019-05-13T13:07:05.549Z,45.10
2019-05-13T13:09:35.409Z,45.50
2019-05-13T13:12:05.088Z,45.40
2019-05-13T13:14:43.969Z,45.50
2019-05-13T13:17:06.205Z,45.30
2019-05-13T13:19:36.099Z,45.30
2019-05-13T13:22:07.897Z,45.30
2019-05-13T13:24:37.417Z,45.40
2019-05-13T13:27:14.788Z,45.30
2019-05-13T13:29:38.629Z,45.40
2019-05-13T13:32:08.220Z,45.30
2019-05-13T13:34:37.946Z,45.30
2019-05-13T13:37:07.981Z,45.30
2019-05-13T13:39:37.787Z,45.50
2019-05-13T13:42:07.404Z,45.50
2019-05-13T13:44:37.810Z,45.70
2019-05-13T13:47:07.488Z,45.90
2019-05-13T13:49:37.078Z,46.10
2019-05-13T13:52:06.682Z,46.00
2019-05-13T13:54:36.671Z,46.60
2019-05-13T13:57:06.282Z,45.90
2019-05-13T13:59:36.335Z,45.90
2019-05-13T14:02:06.118Z,46.20
2019-05-13T14:04:36.012Z,46.20
2019-05-13T14:07:22.523Z,45.80
2019-05-13T14:09:37.329Z,45.60
2019-05-13T14:12:07.030Z,45.90
2019-05-13T14:14:36.766Z,45.70
2019-05-13T14:17:06.641Z,45.70
2019-05-13T14:19:36.262Z,45.80
2019-05-13T14:22:05.946Z,45.80
2019-05-13T14:24:36.286Z,45.20
2019-05-13T14:27:06.360Z,45.40
2019-05-13T14:29:48.328Z,45.20
2019-05-13T14:32:07.323Z,45.40
2019-05-13T14:34:37.018Z,45.20
2019-05-13T14:37:06.953Z,45.30
2019-05-13T14:39:36.597Z,44.90
2019-05-13T14:42:06.190Z,44.90
2019-05-13T14:44:35.820Z,44.90
2019-05-13T14:47:05.442Z,45.00
2019-05-13T14:49:35.057Z,44.60
2019-05-13T14:52:05.505Z,44.40
2019-05-13T14:54:35.112Z,44.40
2019-05-13T14:57:05.023Z,44.30
2019-05-13T14:59:35.928Z,44.20
2019-05-13T15:02:05.737Z,44.30
2019-05-13T15:04:35.345Z,44.20
2019-05-13T15:07:05.039Z,43.90
2019-05-13T15:09:34.720Z,43.90
2019-05-13T15:12:04.451Z,43.70
2019-05-13T15:14:34.377Z,43.90
2019-05-13T15:17:07.270Z,43.40
2019-05-13T15:19:35.420Z,43.30
2019-05-13T15:22:05.185Z,43.40
2019-05-13T15:24:34.810Z,43.20
2019-05-13T15:27:04.557Z,43.40
2019-05-13T15:29:34.173Z,43.30
2019-05-13T15:32:03.756Z,43.00
2019-05-13T15:34:33.418Z,43.10
2019-05-13T15:37:03.301Z,43.30
2019-05-13T15:39:32.918Z,42.90
2019-05-13T15:42:02.557Z,43.10
2019-05-13T15:44:32.802Z,43.30
2019-05-13T15:47:18.210Z,43.30
2019-05-13T15:49:33.899Z,43.20
2019-05-13T15:52:03.868Z,43.00
2019-05-13T15:54:33.491Z,43.00
2019-05-13T15:57:03.115Z,42.20
2019-05-13T15:59:32.707Z,41.50
2019-05-13T16:02:02.633Z,41.50
2019-05-13T16:04:32.824Z,41.20
2019-05-13T16:07:02.511Z,41.20
2019-05-13T16:09:32.210Z,41.00
2019-05-13T16:12:01.924Z,41.10
2019-05-13T16:14:31.825Z,41.20
2019-05-13T16:17:01.489Z,41.00
2019-05-13T16:19:32.680Z,40.90
2019-05-13T16:22:02.520Z,40.80
2019-05-13T16:24:32.348Z,41.10
2019-05-13T16:27:02.729Z,41.20
2019-05-13T16:29:32.420Z,41.00
2019-05-13T16:32:02.324Z,40.90
2019-05-13T16:34:32.120Z,40.90
2019-05-13T16:37:02.668Z,40.70
2019-05-13T16:39:32.503Z,40.00
2019-05-13T16:42:02.094Z,39.50
2019-05-13T16:44:31.981Z,39.20
2019-05-13T16:47:02.250Z,39.20
2019-05-13T16:49:32.066Z,39.30
2019-05-13T16:52:02.515Z,39.10
2019-05-13T16:54:33.108Z,39.20
2019-05-13T16:57:02.807Z,39.80
2019-05-13T16:59:32.422Z,39.40
2019-05-13T17:02:02.120Z,39.20
2019-05-13T17:04:32.366Z,39.40
2019-05-13T17:07:02.042Z,38.90
2019-05-13T17:09:32.330Z,39.00
2019-05-13T17:12:02.208Z,39.10
2019-05-13T17:14:32.359Z,38.70
2019-05-13T17:17:02.345Z,38.30
2019-05-13T17:19:32.007Z,39.10
2019-05-13T17:22:02.530Z,38.30
2019-05-13T17:24:32.334Z,38.60
2019-05-13T17:27:02.729Z,38.50
2019-05-13T17:29:32.484Z,38.50
2019-05-13T17:32:02.611Z,38.60
2019-05-13T17:34:32.254Z,38.80
2019-05-13T17:37:02.885Z,39.60
2019-05-13T17:39:32.672Z,38.90
2019-05-13T17:42:02.374Z,39.10
2019-05-13T17:44:32.185Z,39.30
2019-05-13T17:47:02.180Z,39.60
2019-05-13T17:49:32.142Z,39.90
2019-05-13T17:52:02.459Z,39.60
2019-05-13T17:54:32.410Z,39.40
2019-05-13T17:57:02.157Z,39.50
2019-05-13T17:59:31.856Z,39.40
2019-05-13T18:02:02.695Z,39.10
2019-05-13T18:04:33.891Z,38.90
2019-05-13T18:07:03.585Z,39.10
2019-05-13T18:09:36.009Z,39.50
2019-05-13T18:12:06.659Z,39.60
2019-05-13T18:14:38.234Z,39.20
2019-05-13T18:17:07.865Z,39.10
2019-05-13T18:19:37.515Z,38.90
2019-05-13T18:22:07.133Z,38.90
2019-05-13T18:24:37.037Z,39.10
2019-05-13T18:27:06.633Z,39.10
2019-05-13T18:29:36.325Z,39.40
2019-05-13T18:32:06.413Z,39.20
2019-05-13T18:34:36.337Z,39.20
2019-05-13T18:37:06.115Z,39.40
2019-05-13T18:39:35.717Z,39.50
2019-05-13T18:42:05.402Z,39.40
2019-05-13T18:44:35.026Z,39.80
2019-05-13T18:47:04.720Z,40.00
2019-05-13T18:49:34.313Z,40.10
2019-05-13T18:52:03.923Z,40.20
2019-05-13T18:54:33.546Z,40.30
2019-05-13T18:57:03.141Z,40.40
2019-05-13T18:59:32.815Z,40.50
2019-05-13T19:02:02.424Z,39.60
2019-05-13T19:04:32.089Z,39.00
2019-05-13T19:07:02.450Z,37.70
2019-05-13T19:09:32.197Z,36.40
2019-05-13T19:12:01.801Z,35.80
2019-05-13T19:14:32.244Z,35.40
2019-05-13T19:17:02.086Z,35.30
2019-05-13T19:19:31.865Z,35.00
2019-05-13T19:22:02.130Z,35.20
2019-05-13T19:24:31.960Z,35.10
2019-05-13T19:27:02.001Z,35.30
2019-05-13T19:29:32.982Z,35.60
2019-05-13T19:32:02.583Z,35.80
2019-05-13T19:34:32.593Z,36.00
2019-05-13T19:37:02.679Z,36.30
2019-05-13T19:39:32.340Z,36.50
2019-05-13T19:42:01.938Z,36.90
2019-05-13T19:44:31.814Z,36.90
2019-05-13T19:47:02.119Z,37.10
2019-05-13T19:49:36.282Z,37.10
2019-05-13T19:52:03.100Z,37.40
2019-05-13T19:54:32.703Z,37.70
2019-05-13T19:57:02.318Z,38.50
2019-05-13T19:59:32.355Z,38.20
2019-05-13T20:02:02.026Z,38.50
2019-05-13T20:04:31.710Z,38.70
2019-05-13T20:07:01.592Z,39.00
2019-05-13T20:09:32.197Z,39.10
2019-05-13T20:12:02.240Z,39.40
2019-05-13T20:14:31.861Z,39.70
2019-05-13T20:17:01.776Z,39.90
2019-05-13T20:19:45.698Z,40.20
2019-05-13T20:22:02.877Z,40.60
2019-05-13T20:24:32.478Z,40.80
2019-05-13T20:27:02.094Z,41.10
2019-05-13T20:29:31.690Z,41.30
2019-05-13T20:32:01.551Z,41.80
2019-05-13T20:34:31.843Z,42.10
2019-05-13T20:37:02.261Z,42.30
2019-05-13T20:39:32.296Z,42.70
2019-05-13T20:42:01.959Z,42.80
2019-05-13T20:44:31.632Z,43.10
2019-05-13T20:47:01.900Z,43.50
2019-05-13T20:49:31.703Z,43.70
2019-05-13T20:52:01.333Z,43.80
2019-05-13T20:54:31.547Z,44.00
2019-05-13T20:57:02.025Z,44.40
2019-05-13T20:59:32.280Z,44.40
2019-05-13T21:02:02.612Z,44.80
2019-05-13T21:04:32.453Z,45.30
2019-05-13T21:07:02.355Z,45.60
2019-05-13T21:09:32.044Z,45.50
2019-05-13T21:12:02.206Z,46.10
2019-05-13T21:14:32.178Z,46.00
2019-05-13T21:17:02.214Z,46.30
2019-05-13T21:19:39.207Z,46.40
2019-05-13T21:22:03.153Z,46.50
2019-05-13T21:24:32.832Z,46.90
2019-05-13T21:27:02.525Z,47.00
2019-05-13T21:29:32.509Z,47.20
2019-05-13T21:32:02.074Z,47.30
2019-05-13T21:34:31.780Z,47.50
2019-05-13T21:37:02.359Z,47.70
2019-05-13T21:39:32.257Z,47.90
2019-05-13T21:42:02.451Z,48.10
2019-05-13T21:44:33.960Z,48.00
2019-05-13T21:47:03.569Z,48.10
2019-05-13T21:49:33.265Z,48.30
2019-05-13T21:52:03.867Z,48.40
2019-05-13T21:54:33.637Z,48.40
2019-05-13T21:57:03.263Z,48.60
2019-05-13T21:59:32.965Z,48.80
2019-05-13T22:02:03.168Z,48.80
2019-05-13T22:04:32.763Z,49.00
2019-05-13T22:07:02.485Z,49.50
2019-05-13T22:09:32.170Z,49.50
2019-05-13T22:12:02.192Z,49.40
2019-05-13T22:14:32.209Z,49.50
2019-05-13T22:17:02.072Z,49.60
2019-05-13T22:19:31.823Z,49.80
2019-05-13T22:22:02.344Z,50.30
2019-05-13T22:24:32.116Z,50.10
2019-05-13T22:27:02.120Z,49.90
2019-05-13T22:29:32.331Z,50.00
2019-05-13T22:32:02.267Z,50.00
2019-05-13T22:34:32.172Z,50.00
2019-05-13T22:37:02.599Z,50.30
2019-05-13T22:39:34.768Z,50.10
2019-05-13T22:42:03.674Z,50.50
2019-05-13T22:44:34.363Z,50.40
2019-05-13T22:47:03.945Z,50.70
2019-05-13T22:49:33.549Z,50.90
2019-05-13T22:52:03.188Z,50.80
2019-05-13T22:54:32.793Z,50.90
2019-05-13T22:57:02.402Z,50.80
2019-05-13T22:59:32.333Z,50.90
2019-05-13T23:02:01.974Z,50.80
2019-05-13T23:04:31.652Z,51.00
2019-05-13T23:07:01.463Z,51.10
2019-05-13T23:09:32.213Z,51.20
2019-05-13T23:12:01.973Z,51.30
2019-05-13T23:14:31.659Z,51.90
2019-05-13T23:17:02.253Z,51.30
2019-05-13T23:19:33.543Z,51.30
2019-05-13T23:22:03.157Z,51.50
2019-05-13T23:24:33.829Z,51.40
2019-05-13T23:27:03.512Z,51.50
2019-05-13T23:29:34.372Z,51.60
2019-05-13T23:32:04.011Z,51.70
2019-05-13T23:34:33.692Z,52.00
2019-05-13T23:37:03.385Z,52.00
2019-05-13T23:39:32.987Z,52.00
2019-05-13T23:42:02.601Z,52.00
2019-05-13T23:44:32.382Z,52.40
2019-05-13T23:47:03.298Z,52.40
2019-05-13T23:49:33.937Z,52.60
2019-05-13T23:52:05.704Z,52.60
2019-05-13T23:54:36.363Z,52.60
2019-05-13T23:57:07.190Z,52.90
2019-05-13T23:59:36.775Z,52.70
